Lady Debora — V2QG7 — position and weather

sailwx.info

Track history (hours):
 
Tides and Currents Weather Stations Pressure Air Temp Water Temp Dewpoint Dewpoint Depression Visibility Wind Speed Wind Dir Waves Ship Positions

Lady Debora

Last reported at 2018-Feb-19 14:12 UTC. Time now 2018-Feb-19 20:19 UTC.
Position N 37°43' W 000°22'.

Length 107 m; draft 7.1 m.

Type: Cargo ship. MMSI: 304010760.

Date/timePositionNaut miles runAvg speedWind from/ knotsBaromVisibWave heightAir tempDewpointWater temp
2018-Feb-19 14:12N 37°43' W 000°22'310.0
2018-Feb-19 13:55N 37°41' W 000°24'4 9.8
2018-Feb-19 13:28N 37°38' W 000°27'5 9.6
2018-Feb-19 13:00N 37°34' W 000°30'9 9.3
2018-Feb-19 11:59N 37°27' W 000°39'4 8.8
2018-Feb-19 11:30N 37°25' W 000°43'4 8.8
2018-Feb-19 11:00N 37°22' W 000°47'4 8.8
2018-Feb-19 10:30N 37°19' W 000°51'4 8.6
2018-Feb-19 10:00N 37°16' W 000°55'  
2018-Feb-16 15:34N 38°41' W 010°05'1 9.1
2018-Feb-16 15:29N 38°41' W 010°05'4 8.8
2018-Feb-16 15:00N 38°46' W 010°06'4 8.6
2018-Feb-16 14:30N 38°50' W 010°06'4 8.3
2018-Feb-16 14:00N 38°54' W 010°06'4 8.2
2018-Feb-16 13:30N 38°58' W 010°06'4 8.3
2018-Feb-16 13:00N 39°02' W 010°06'4 8.4
2018-Feb-16 12:30N 39°06' W 010°06'4 8.3
2018-Feb-16 12:00N 39°11' W 010°06'4 8.4
2018-Feb-16 11:30N 39°15' W 010°06'5 8.3
2018-Feb-16 10:58N 39°19' W 010°06'13 8.3
2018-Feb-16 09:28N 39°32' W 010°06'  
2018-Feb-11 07:44N 39°24' W 009°50'2 8.4
2018-Feb-11 07:29N 39°22' W 009°50'4 8.3
2018-Feb-11 07:00N 39°18' W 009°50'4 8.1
2018-Feb-11 06:30N 39°14' W 009°50'4 8.1
2018-Feb-11 06:00N 39°10' W 009°50'4 8.0
2018-Feb-11 05:30N 39°06' W 009°50'4 7.9
2018-Feb-11 05:00N 39°02' W 009°50'4 8.0
2018-Feb-11 04:31N 38°58' W 009°50'4 8.0
2018-Feb-11 04:00N 38°54' W 009°50'4 7.8
2018-Feb-11 03:30N 38°50' W 009°50'4 7.6
2018-Feb-11 03:00N 38°46' W 009°50'4 7.4
2018-Feb-11 02:29N 38°42' W 009°50'3 6.8
2018-Feb-11 02:00N 38°39' W 009°49'3 6.6
2018-Feb-11 01:30N 38°36' W 009°48'3 5.8
2018-Feb-11 01:00N 38°33' W 009°47'3 6.2
2018-Feb-11 00:31N 38°30' W 009°46'3 5.7
2018-Feb-10 23:59N 38°27' W 009°45'3 5.3
2018-Feb-10 23:30N 38°24' W 009°45'3 5.5
2018-Feb-10 22:59N 38°22' W 009°44'2 4.4
2018-Feb-10 22:30N 38°20' W 009°43'3 5.3
2018-Feb-10 22:00N 38°17' W 009°42'4 5.0
2018-Feb-10 21:13N 38°13' W 009°41'2 4.5
2018-Feb-10 20:53N 38°12' W 009°41'2 4.7
2018-Feb-10 20:27N 38°10' W 009°40'2 5.0
2018-Feb-10 20:00N 38°08' W 009°39'2 4.2
2018-Feb-10 19:30N 38°05' W 009°39'2 4.6
2018-Feb-10 19:00N 38°03' W 009°38'2 4.4
2018-Feb-10 18:30N 38°01' W 009°38'2 4.6
2018-Feb-10 18:00N 37°59' W 009°37'2 4.5
2018-Feb-10 17:31N 37°57' W 009°37'2 4.8
2018-Feb-10 17:00N 37°54' W 009°36'2 4.3
2018-Feb-10 16:30N 37°52' W 009°35'2 4.2
2018-Feb-10 16:00N 37°50' W 009°35'2 3.6
2018-Feb-10 15:30N 37°48' W 009°34'2 3.5
2018-Feb-10 15:00N 37°47' W 009°34'2 3.0
2018-Feb-10 14:30N 37°45' W 009°33'2 3.2
2018-Feb-10 14:00N 37°44' W 009°33'1 3.1
2018-Feb-10 13:30N 37°42' W 009°32'2 3.4
2018-Feb-10 13:00N 37°40' W 009°32'2 3.5
2018-Feb-10 12:30N 37°39' W 009°31'1 3.0
2018-Feb-10 12:01N 37°37' W 009°31'  
Track history (hours):
 
Tides and Currents Weather Stations Pressure Air Temp Water Temp Dewpoint Dewpoint Depression Visibility Wind Speed Wind Dir Waves Ship Positions

Lady Debora

Last reported at 2018-Feb-19 14:12 UTC. Time now 2018-Feb-19 20:19 UTC.
Position N 37°43' W 000°22'.

Length 107 m; draft 7.1 m.

Type: Cargo ship. MMSI: 304010760.

Date/timePositionNaut miles runAvg speedWind from/ knotsBaromVisibWave heightAir tempDewpointWater temp
2018-Feb-19 14:12N 37°43' W 000°22'310.0
2018-Feb-19 13:55N 37°41' W 000°24'4 9.8
2018-Feb-19 13:28N 37°38' W 000°27'5 9.6
2018-Feb-19 13:00N 37°34' W 000°30'9 9.3
2018-Feb-19 11:59N 37°27' W 000°39'4 8.8
2018-Feb-19 11:30N 37°25' W 000°43'4 8.8
2018-Feb-19 11:00N 37°22' W 000°47'4 8.8
2018-Feb-19 10:30N 37°19' W 000°51'4 8.6
2018-Feb-19 10:00N 37°16' W 000°55'  
2018-Feb-16 15:34N 38°41' W 010°05'1 9.1
2018-Feb-16 15:29N 38°41' W 010°05'4 8.8
2018-Feb-16 15:00N 38°46' W 010°06'4 8.6
2018-Feb-16 14:30N 38°50' W 010°06'4 8.3
2018-Feb-16 14:00N 38°54' W 010°06'4 8.2
2018-Feb-16 13:30N 38°58' W 010°06'4 8.3
2018-Feb-16 13:00N 39°02' W 010°06'4 8.4
2018-Feb-16 12:30N 39°06' W 010°06'4 8.3
2018-Feb-16 12:00N 39°11' W 010°06'4 8.4
2018-Feb-16 11:30N 39°15' W 010°06'5 8.3
2018-Feb-16 10:58N 39°19' W 010°06'13 8.3
2018-Feb-16 09:28N 39°32' W 010°06'  
2018-Feb-11 07:44N 39°24' W 009°50'2 8.4
2018-Feb-11 07:29N 39°22' W 009°50'4 8.3
2018-Feb-11 07:00N 39°18' W 009°50'4 8.1
2018-Feb-11 06:30N 39°14' W 009°50'4 8.1
2018-Feb-11 06:00N 39°10' W 009°50'4 8.0
2018-Feb-11 05:30N 39°06' W 009°50'4 7.9
2018-Feb-11 05:00N 39°02' W 009°50'4 8.0
2018-Feb-11 04:31N 38°58' W 009°50'4 8.0
2018-Feb-11 04:00N 38°54' W 009°50'4 7.8
2018-Feb-11 03:30N 38°50' W 009°50'4 7.6
2018-Feb-11 03:00N 38°46' W 009°50'4 7.4
2018-Feb-11 02:29N 38°42' W 009°50'3 6.8
2018-Feb-11 02:00N 38°39' W 009°49'3 6.6
2018-Feb-11 01:30N 38°36' W 009°48'3 5.8
2018-Feb-11 01:00N 38°33' W 009°47'3 6.2
2018-Feb-11 00:31N 38°30' W 009°46'3 5.7
2018-Feb-10 23:59N 38°27' W 009°45'3 5.3
2018-Feb-10 23:30N 38°24' W 009°45'3 5.5
2018-Feb-10 22:59N 38°22' W 009°44'2 4.4
2018-Feb-10 22:30N 38°20' W 009°43'3 5.3
2018-Feb-10 22:00N 38°17' W 009°42'4 5.0
2018-Feb-10 21:13N 38°13' W 009°41'2 4.5
2018-Feb-10 20:53N 38°12' W 009°41'2 4.7
2018-Feb-10 20:27N 38°10' W 009°40'2 5.0
2018-Feb-10 20:00N 38°08' W 009°39'2 4.2
2018-Feb-10 19:30N 38°05' W 009°39'2 4.6
2018-Feb-10 19:00N 38°03' W 009°38'2 4.4
2018-Feb-10 18:30N 38°01' W 009°38'2 4.6
2018-Feb-10 18:00N 37°59' W 009°37'2 4.5
2018-Feb-10 17:31N 37°57' W 009°37'2 4.8
2018-Feb-10 17:00N 37°54' W 009°36'2 4.3
2018-Feb-10 16:30N 37°52' W 009°35'2 4.2
2018-Feb-10 16:00N 37°50' W 009°35'2 3.6
2018-Feb-10 15:30N 37°48' W 009°34'2 3.5
2018-Feb-10 15:00N 37°47' W 009°34'2 3.0
2018-Feb-10 14:30N 37°45' W 009°33'2 3.2
2018-Feb-10 14:00N 37°44' W 009°33'1 3.1
2018-Feb-10 13:30N 37°42' W 009°32'2 3.4
2018-Feb-10 13:00N 37°40' W 009°32'2 3.5
2018-Feb-10 12:30N 37°39' W 009°31'1 3.0
2018-Feb-10 12:01N 37°37' W 009°31'  

Dump ship's entire track history